createdAt,value
2022-09-21T00:02:04.976Z,37.35
2022-09-21T00:04:34.654Z,31.95
2022-09-21T00:07:03.894Z,29.25
2022-09-21T00:09:34.083Z,31.20
2022-09-21T00:12:03.999Z,32.05
2022-09-21T00:14:33.853Z,33.20
2022-09-21T00:17:03.745Z,32.75
2022-09-21T00:19:33.295Z,31.98
2022-09-21T00:22:03.371Z,30.95
2022-09-21T00:24:33.362Z,30.92
2022-09-21T00:27:02.913Z,31.98
2022-09-21T00:29:32.955Z,31.33
2022-09-21T00:32:02.923Z,32.75
2022-09-21T00:34:33.493Z,32.05
2022-09-21T00:37:03.162Z,31.80
2022-09-21T00:39:33.168Z,31.17
2022-09-21T00:42:03.404Z,31.83
2022-09-21T00:44:35.038Z,32.72
2022-09-21T00:47:12.085Z,29.73
2022-09-21T00:49:44.752Z,30.00
2022-09-21T00:52:18.781Z,30.30
2022-09-21T00:54:54.392Z,28.55
2022-09-21T00:57:28.802Z,31.17
2022-09-21T01:00:02.739Z,45.53
2022-09-21T01:02:36.810Z,43.60
2022-09-21T01:05:11.473Z,40.83
2022-09-21T01:07:47.263Z,42.35
2022-09-21T01:10:22.561Z,39.75
2022-09-21T01:13:16.529Z,33.78
2022-09-21T01:16:11.974Z,33.38
2022-09-21T01:19:01.211Z,37.75
2022-09-21T01:22:01.379Z,45.25
2022-09-21T01:25:10.513Z,49.28
2022-09-21T01:28:04.309Z,53.85
2022-09-21T01:30:39.864Z,46.58
2022-09-21T01:33:44.395Z,45.15
2022-09-21T01:36:23.393Z,43.85
2022-09-21T01:39:00.315Z,42.45
2022-09-21T01:41:33.679Z,38.83
2022-09-21T01:44:13.806Z,37.38
2022-09-21T01:46:45.491Z,34.70
2022-09-21T01:49:20.452Z,33.90
2022-09-21T01:51:59.265Z,42.78
2022-09-21T01:54:59.601Z,33.63
2022-09-21T01:57:35.015Z,31.98
2022-09-21T02:00:08.711Z,33.38
2022-09-21T02:02:56.454Z,31.80
2022-09-21T02:05:30.115Z,31.67
2022-09-21T02:08:01.680Z,33.10
2022-09-21T02:10:38.081Z,32.75
2022-09-21T02:13:10.816Z,30.23
2022-09-21T02:15:50.675Z,31.83
2022-09-21T02:18:48.803Z,26.73
2022-09-21T02:21:37.027Z,20.45
2022-09-21T02:24:17.292Z,19.98
2022-09-21T02:26:55.458Z,24.83
2022-09-21T02:29:35.714Z,25.98
2022-09-21T02:32:36.795Z,25.33
2022-09-21T02:35:18.795Z,22.33
2022-09-21T02:38:22.980Z,23.13
2022-09-21T02:40:57.666Z,22.27
2022-09-21T02:43:38.813Z,15.00
2022-09-21T02:46:18.206Z,42.08
2022-09-21T02:48:56.377Z,19.25
2022-09-21T02:51:35.018Z,16.15
2022-09-21T02:54:10.460Z,15.13
2022-09-21T02:56:44.698Z,16.77
2022-09-21T02:59:18.825Z,15.85
2022-09-21T03:01:51.067Z,16.23
2022-09-21T03:04:22.695Z,18.77
2022-09-21T03:06:55.218Z,22.00
2022-09-21T03:09:27.527Z,18.65
2022-09-21T03:14:29.450Z,20.17
2022-09-21T03:17:00.410Z,18.38
2022-09-21T03:19:32.276Z,14.95
2022-09-21T03:22:02.989Z,15.73
2022-09-21T03:24:48.455Z,15.70
2022-09-21T03:27:22.906Z,14.30
2022-09-21T03:29:52.784Z,15.48
2022-09-21T03:32:24.536Z,17.77
2022-09-21T03:34:56.820Z,20.10
2022-09-21T03:37:28.304Z,19.58
2022-09-21T03:40:00.202Z,26.90
2022-09-21T03:42:31.739Z,23.70
2022-09-21T03:45:03.485Z,25.67
2022-09-21T03:47:35.404Z,28.90
2022-09-21T03:50:10.013Z,28.90
2022-09-21T03:52:41.921Z,28.02
2022-09-21T03:55:13.867Z,30.25
2022-09-21T03:57:44.802Z,33.53
2022-09-21T04:00:15.736Z,35.10
2022-09-21T04:02:47.521Z,37.75
2022-09-21T04:05:20.043Z,32.55
2022-09-21T04:07:51.977Z,40.60
2022-09-21T04:10:29.662Z,45.05
2022-09-21T04:13:04.496Z,45.35
2022-09-21T04:15:37.526Z,49.25
2022-09-21T04:18:09.163Z,57.53
2022-09-21T04:20:44.685Z,73.45
2022-09-21T04:23:15.710Z,80.63
2022-09-21T04:25:55.413Z,82.80
2022-09-21T04:28:26.305Z,79.30
2022-09-21T04:30:56.885Z,77.00
2022-09-21T04:33:29.963Z,73.22
2022-09-21T04:36:00.788Z,66.38
2022-09-21T04:38:34.598Z,66.68
2022-09-21T04:41:07.673Z,61.67
2022-09-21T04:43:37.680Z,59.33
2022-09-21T04:46:13.884Z,55.17
2022-09-21T04:48:45.660Z,53.20
2022-09-21T04:51:18.227Z,46.92
2022-09-21T04:53:51.905Z,43.65
2022-09-21T04:56:22.476Z,41.47
2022-09-21T04:58:53.211Z,50.72
2022-09-21T05:01:24.682Z,44.55
2022-09-21T05:03:57.709Z,39.80
2022-09-21T05:06:29.279Z,38.25
2022-09-21T05:09:19.122Z,41.00
2022-09-21T05:11:49.793Z,40.80
2022-09-21T05:14:21.211Z,40.42
2022-09-21T05:16:51.125Z,30.15
2022-09-21T05:19:22.388Z,31.45
2022-09-21T05:21:52.716Z,25.83
2022-09-21T05:24:24.518Z,26.38
2022-09-21T05:26:55.845Z,25.02
2022-09-21T05:29:26.471Z,23.42
2022-09-21T05:32:04.454Z,22.00
2022-09-21T05:34:59.103Z,22.92
2022-09-21T05:37:51.303Z,23.38
2022-09-21T05:40:23.668Z,27.75
2022-09-21T05:42:55.000Z,63.45
2022-09-21T05:45:27.905Z,84.55
2022-09-21T05:48:18.525Z,24.10
2022-09-21T05:53:57.257Z,42.92
2022-09-21T05:56:38.688Z,43.05
2022-09-21T05:59:31.049Z,32.30
2022-09-21T06:02:22.947Z,21.58
2022-09-21T06:04:56.001Z,30.98
2022-09-21T06:07:39.218Z,23.40
2022-09-21T06:10:14.715Z,22.70
2022-09-21T06:12:47.505Z,18.25
2022-09-21T06:15:19.375Z,16.77
2022-09-21T06:17:53.149Z,19.45
2022-09-21T06:20:32.963Z,26.70
2022-09-21T06:23:12.052Z,20.05
2022-09-21T06:25:55.933Z,16.00
2022-09-21T06:28:30.422Z,76.40
2022-09-21T06:31:08.223Z,31.33
2022-09-21T06:33:40.077Z,13.27
2022-09-21T06:36:20.711Z,13.85
2022-09-21T06:38:55.430Z,12.32
2022-09-21T06:41:37.761Z,30.55
2022-09-21T06:44:22.408Z,29.17
2022-09-21T06:46:54.874Z,19.42
2022-09-21T06:49:39.192Z,34.30
2022-09-21T06:52:14.586Z,11.00
2022-09-21T06:54:44.921Z,13.55
2022-09-21T06:57:15.663Z,44.08
2022-09-21T06:59:45.677Z,19.17
2022-09-21T07:02:19.300Z,12.38
2022-09-21T07:04:49.763Z,9.82
2022-09-21T07:07:19.298Z,17.15
2022-09-21T07:10:06.711Z,11.43
2022-09-21T07:12:37.563Z,17.67
2022-09-21T07:15:09.550Z,9.25
2022-09-21T07:17:41.184Z,19.25
2022-09-21T07:20:11.448Z,9.87
2022-09-21T07:22:41.241Z,13.55
2022-09-21T07:25:11.999Z,10.43
2022-09-21T07:27:42.650Z,11.32
2022-09-21T07:30:13.154Z,7.22
2022-09-21T07:32:43.487Z,7.45
2022-09-21T07:35:13.489Z,10.68
2022-09-21T07:37:45.165Z,10.60
2022-09-21T07:40:15.050Z,16.27
2022-09-21T07:42:46.215Z,15.48
2022-09-21T07:45:15.856Z,14.52
2022-09-21T07:47:45.468Z,12.18
2022-09-21T07:50:15.968Z,24.27
2022-09-21T07:53:08.300Z,22.20
2022-09-21T07:55:44.322Z,14.70
2022-09-21T07:58:33.257Z,15.07
2022-09-21T08:01:08.240Z,16.58
2022-09-21T08:03:38.276Z,23.35
2022-09-21T08:06:08.621Z,14.60
2022-09-21T08:08:39.209Z,13.18
2022-09-21T08:11:10.748Z,19.95
2022-09-21T08:13:41.460Z,17.48
2022-09-21T08:16:13.150Z,19.98
2022-09-21T08:18:44.602Z,25.60
2022-09-21T08:21:16.277Z,36.50
2022-09-21T08:23:46.140Z,38.58
2022-09-21T08:26:20.314Z,36.40
2022-09-21T08:28:53.204Z,21.88
2022-09-21T08:31:25.576Z,20.40
2022-09-21T08:36:27.112Z,18.65
2022-09-21T08:38:58.001Z,13.80
2022-09-21T08:42:09.738Z,19.65
2022-09-21T08:44:46.065Z,20.92
2022-09-21T08:47:22.423Z,15.60
2022-09-21T08:49:58.956Z,17.73
2022-09-21T08:52:29.222Z,15.88
2022-09-21T08:55:33.737Z,15.50
2022-09-21T08:58:04.814Z,11.50
2022-09-21T09:00:40.587Z,10.95
2022-09-21T09:03:35.899Z,8.60
2022-09-21T09:06:15.405Z,7.25
2022-09-21T09:09:29.336Z,6.82
2022-09-21T09:12:24.124Z,6.47
2022-09-21T09:15:06.604Z,9.63
2022-09-21T09:20:24.300Z,9.95
2022-09-21T09:23:23.021Z,10.30
2022-09-21T09:25:58.704Z,9.18
2022-09-21T09:28:37.704Z,8.30
2022-09-21T09:31:18.862Z,9.57
2022-09-21T09:33:52.706Z,10.70
2022-09-21T09:36:34.978Z,8.50
2022-09-21T09:39:17.852Z,7.13
2022-09-21T09:42:23.792Z,7.28
2022-09-21T09:45:26.801Z,6.68
2022-09-21T09:48:03.891Z,6.60
2022-09-21T09:50:41.708Z,6.93
2022-09-21T09:53:22.317Z,6.93
2022-09-21T09:55:57.978Z,8.75
2022-09-21T09:58:51.375Z,7.55
2022-09-21T10:02:04.318Z,8.57
2022-09-21T10:04:36.255Z,8.82
2022-09-21T10:07:06.398Z,7.60
2022-09-21T10:09:37.138Z,6.75
2022-09-21T10:12:26.288Z,7.28
2022-09-21T10:15:02.345Z,7.32
2022-09-21T10:17:32.438Z,6.95
2022-09-21T10:20:04.095Z,8.30
2022-09-21T10:22:34.574Z,6.93
2022-09-21T10:25:07.259Z,6.75
2022-09-21T10:30:28.462Z,6.95
2022-09-21T10:33:01.699Z,6.90
2022-09-21T10:35:33.255Z,5.38
2022-09-21T10:38:22.469Z,5.32
2022-09-21T10:40:52.899Z,5.90
2022-09-21T10:43:44.122Z,5.70
2022-09-21T10:46:14.491Z,6.90
2022-09-21T10:48:48.109Z,5.95
2022-09-21T10:51:32.738Z,7.35
2022-09-21T10:54:03.004Z,9.05
2022-09-21T10:56:33.479Z,7.07
2022-09-21T10:59:25.964Z,6.40
2022-09-21T11:01:59.233Z,7.18
2022-09-21T11:04:47.731Z,5.40
2022-09-21T11:07:23.673Z,4.97
2022-09-21T11:09:56.794Z,5.80
2022-09-21T11:12:59.874Z,6.28
2022-09-21T11:15:57.953Z,5.82
2022-09-21T11:19:08.454Z,6.65
2022-09-21T11:22:02.248Z,6.50
2022-09-21T11:24:56.505Z,7.32
2022-09-21T11:27:43.470Z,7.97
2022-09-21T11:30:22.125Z,8.40
2022-09-21T11:33:35.647Z,9.82
2022-09-21T11:36:24.651Z,8.27
2022-09-21T11:39:27.743Z,8.63
2022-09-21T11:42:29.311Z,9.32
2022-09-21T11:45:04.974Z,9.45
2022-09-21T11:47:49.833Z,9.70
2022-09-21T11:50:46.483Z,8.10
2022-09-21T11:54:18.811Z,6.63
2022-09-21T11:57:25.664Z,6.72
2022-09-21T12:00:17.436Z,8.32
2022-09-21T12:03:28.631Z,8.07
2022-09-21T12:06:22.754Z,10.85
2022-09-21T12:08:55.149Z,7.95
2022-09-21T12:11:28.043Z,7.18
2022-09-21T12:14:35.726Z,10.88
2022-09-21T12:17:41.263Z,8.05
2022-09-21T12:20:25.791Z,7.45
2022-09-21T12:23:03.838Z,7.63
2022-09-21T12:25:43.116Z,7.13
2022-09-21T12:28:15.725Z,8.15
2022-09-21T12:30:51.159Z,7.68
2022-09-21T12:33:47.053Z,9.50
2022-09-21T12:36:24.618Z,8.70
2022-09-21T12:39:09.376Z,9.20
2022-09-21T12:41:58.386Z,8.60
2022-09-21T12:44:53.155Z,8.90
2022-09-21T12:47:29.500Z,9.73
2022-09-21T12:50:06.519Z,23.10
2022-09-21T12:52:39.001Z,42.95
2022-09-21T12:55:22.107Z,14.52
2022-09-21T12:58:16.330Z,11.38
2022-09-21T13:01:07.729Z,10.50
2022-09-21T13:03:57.708Z,8.48
2022-09-21T13:06:28.265Z,8.60
2022-09-21T13:09:03.326Z,9.43
2022-09-21T13:11:36.479Z,9.32
2022-09-21T13:14:06.836Z,9.02
2022-09-21T13:16:41.061Z,9.18
2022-09-21T13:19:26.516Z,10.07
2022-09-21T13:22:34.920Z,8.80
2022-09-21T13:25:17.866Z,8.48
2022-09-21T13:28:05.273Z,8.73
2022-09-21T13:30:47.774Z,8.85
2022-09-21T13:33:21.795Z,12.98
2022-09-21T13:36:03.670Z,10.30
2022-09-21T13:38:42.163Z,9.65
2022-09-21T13:41:21.222Z,10.20
2022-09-21T13:44:05.106Z,10.55
2022-09-21T13:46:38.394Z,10.55
2022-09-21T13:49:16.921Z,11.75
2022-09-21T13:52:33.823Z,9.63
2022-09-21T13:55:13.690Z,12.10
2022-09-21T13:57:52.832Z,13.35
2022-09-21T14:00:34.618Z,12.27
2022-09-21T14:03:20.428Z,12.38
2022-09-21T14:05:55.190Z,12.05
2022-09-21T14:08:37.487Z,12.95
2022-09-21T14:11:11.895Z,14.95
2022-09-21T14:13:48.662Z,16.23
2022-09-21T14:16:38.435Z,19.67
2022-09-21T14:19:35.005Z,19.55
2022-09-21T14:22:10.730Z,18.27
2022-09-21T14:24:47.894Z,20.85
2022-09-21T14:27:29.340Z,20.42
2022-09-21T14:30:07.447Z,21.73
2022-09-21T14:32:48.548Z,23.88
2022-09-21T14:35:24.651Z,24.38
2022-09-21T14:37:57.762Z,24.60
2022-09-21T14:40:34.842Z,26.50
2022-09-21T14:43:13.699Z,25.92
2022-09-21T14:46:04.538Z,25.55
2022-09-21T14:48:57.746Z,25.50
2022-09-21T14:54:58.382Z,31.33
2022-09-21T14:57:40.069Z,28.92
2022-09-21T15:00:27.653Z,29.55
2022-09-21T15:03:20.411Z,28.17
2022-09-21T15:06:00.121Z,28.20
2022-09-21T15:09:05.223Z,32.50
2022-09-21T15:11:43.789Z,28.23
2022-09-21T15:14:22.469Z,26.77
2022-09-21T15:16:53.893Z,27.55
2022-09-21T15:19:29.192Z,27.90
2022-09-21T15:22:17.440Z,28.35
2022-09-21T15:24:55.314Z,27.90
2022-09-21T15:27:34.459Z,28.35
2022-09-21T15:30:07.835Z,26.58
2022-09-21T15:32:41.836Z,25.58
2022-09-21T15:35:29.159Z,26.80
2022-09-21T15:38:03.480Z,26.63
2022-09-21T15:40:38.381Z,27.75
2022-09-21T15:43:20.723Z,30.95
2022-09-21T15:46:00.525Z,28.38
2022-09-21T15:48:37.366Z,29.80
2022-09-21T15:51:32.022Z,30.88
2022-09-21T15:54:09.126Z,28.23
2022-09-21T15:56:42.019Z,27.75
2022-09-21T15:59:17.993Z,27.57
2022-09-21T16:01:52.849Z,27.85
2022-09-21T16:04:26.221Z,27.63
2022-09-21T16:07:17.659Z,27.27
2022-09-21T16:09:47.691Z,25.92
2022-09-21T16:12:41.948Z,27.88
2022-09-21T16:15:33.271Z,26.85
2022-09-21T16:18:28.259Z,26.05
2022-09-21T16:21:00.147Z,27.20
2022-09-21T16:23:31.683Z,27.75
2022-09-21T16:26:02.832Z,28.08
2022-09-21T16:28:42.367Z,29.15
2022-09-21T16:31:32.002Z,30.02
2022-09-21T16:34:20.230Z,29.02
2022-09-21T16:36:55.717Z,28.67
2022-09-21T16:39:24.893Z,26.02
2022-09-21T16:42:01.542Z,29.45
2022-09-21T16:44:41.107Z,29.38
2022-09-21T16:47:16.591Z,29.05
2022-09-21T16:49:47.287Z,27.25
2022-09-21T16:52:18.308Z,25.60
2022-09-21T16:54:48.578Z,24.48
2022-09-21T16:57:19.427Z,23.60
2022-09-21T16:59:50.640Z,22.75
2022-09-21T17:02:20.590Z,23.25
2022-09-21T17:04:50.311Z,22.17
2022-09-21T17:07:21.143Z,21.77
2022-09-21T17:09:50.842Z,20.65
2022-09-21T17:12:20.501Z,19.90
2022-09-21T17:14:51.058Z,20.63
2022-09-21T17:17:24.883Z,20.08
2022-09-21T17:19:55.110Z,20.13
2022-09-21T17:22:26.316Z,19.15
2022-09-21T17:24:56.047Z,18.60
2022-09-21T17:27:30.312Z,17.83
2022-09-21T17:30:04.585Z,16.75
2022-09-21T17:32:38.543Z,16.83
2022-09-21T17:35:37.097Z,17.63
2022-09-21T17:38:11.285Z,17.45
2022-09-21T17:40:44.363Z,17.27
2022-09-21T17:43:40.486Z,17.38
2022-09-21T17:46:29.025Z,16.15
2022-09-21T17:49:02.003Z,16.37
2022-09-21T17:51:49.939Z,16.40
2022-09-21T17:54:19.534Z,15.93
2022-09-21T17:57:02.276Z,15.68
2022-09-21T17:59:38.885Z,15.70
2022-09-21T18:02:24.594Z,14.98
2022-09-21T18:05:04.418Z,16.15
2022-09-21T18:07:33.761Z,16.02
2022-09-21T18:10:03.105Z,15.57
2022-09-21T18:12:41.290Z,16.05
2022-09-21T18:15:18.367Z,13.85
2022-09-21T18:18:08.947Z,16.02
2022-09-21T18:20:58.746Z,15.45
2022-09-21T18:24:05.128Z,16.20
2022-09-21T18:26:35.856Z,15.07
2022-09-21T18:29:28.613Z,15.68
2022-09-21T18:32:19.431Z,17.02
2022-09-21T18:35:29.257Z,15.85
2022-09-21T18:38:21.867Z,15.80
2022-09-21T18:41:32.820Z,15.85
2022-09-21T18:44:20.060Z,15.73
2022-09-21T18:47:05.869Z,16.15
2022-09-21T18:49:53.364Z,15.25
2022-09-21T18:52:37.452Z,16.73
2022-09-21T18:55:28.905Z,17.33
2022-09-21T18:57:59.684Z,17.60
2022-09-21T19:00:35.331Z,15.77
2022-09-21T19:03:17.729Z,17.40
2022-09-21T19:06:28.211Z,16.00
2022-09-21T19:09:00.571Z,15.88
2022-09-21T19:11:47.644Z,17.52
2022-09-21T19:14:55.668Z,24.90
2022-09-21T19:17:51.913Z,21.20
2022-09-21T19:20:37.067Z,17.58
2022-09-21T19:23:22.501Z,16.75
2022-09-21T19:26:04.069Z,19.48
2022-09-21T19:28:49.825Z,17.63
2022-09-21T19:31:20.599Z,16.08
2022-09-21T19:33:51.391Z,18.13
2022-09-21T19:36:22.308Z,19.27
2022-09-21T19:38:51.744Z,19.15
2022-09-21T19:41:59.370Z,18.25
2022-09-21T19:44:36.103Z,18.25
2022-09-21T19:49:56.987Z,18.65
2022-09-21T19:52:34.080Z,17.35
2022-09-21T19:55:22.143Z,15.80
2022-09-21T19:58:09.877Z,16.27
2022-09-21T20:00:40.006Z,15.52
2022-09-21T20:03:21.400Z,15.25
2022-09-21T20:05:58.510Z,16.17
2022-09-21T20:08:41.795Z,21.88
2022-09-21T20:11:32.234Z,16.48
2022-09-21T20:14:15.883Z,16.27
2022-09-21T20:16:58.471Z,18.23
2022-09-21T20:22:22.046Z,17.00
2022-09-21T20:24:59.169Z,17.23
2022-09-21T20:27:38.860Z,15.65
2022-09-21T20:30:11.371Z,15.65
2022-09-21T20:32:44.918Z,15.95
2022-09-21T20:35:21.230Z,14.18
2022-09-21T20:37:53.330Z,14.98
2022-09-21T20:40:27.749Z,14.80
2022-09-21T20:42:58.637Z,13.25
2022-09-21T20:45:27.896Z,13.52
2022-09-21T20:47:58.259Z,13.35
2022-09-21T20:50:28.403Z,14.30
2022-09-21T20:52:57.881Z,14.02
2022-09-21T20:55:26.602Z,16.23
2022-09-21T20:57:56.186Z,15.88
2022-09-21T21:00:25.293Z,14.75
2022-09-21T21:02:54.516Z,14.18
2022-09-21T21:05:23.482Z,13.48
2022-09-21T21:07:52.365Z,13.35
2022-09-21T21:10:22.978Z,13.13
2022-09-21T21:12:52.576Z,14.68
2022-09-21T21:15:21.424Z,13.35
2022-09-21T21:17:50.520Z,13.25
2022-09-21T21:20:19.562Z,13.73
2022-09-21T21:22:51.628Z,13.88
2022-09-21T21:25:20.723Z,13.40
2022-09-21T21:27:54.112Z,13.07
2022-09-21T21:30:25.175Z,13.20
2022-09-21T21:32:54.756Z,13.18
2022-09-21T21:35:23.739Z,13.38
2022-09-21T21:37:52.577Z,13.65
2022-09-21T21:40:29.878Z,14.35
2022-09-21T21:42:59.048Z,14.43
2022-09-21T21:45:28.028Z,13.70
2022-09-21T21:47:57.085Z,13.43
2022-09-21T21:50:26.695Z,13.90
2022-09-21T21:52:59.961Z,13.10
2022-09-21T21:55:29.300Z,13.52
2022-09-21T21:57:58.214Z,13.23
2022-09-21T22:00:27.613Z,12.82
2022-09-21T22:02:59.685Z,13.10
2022-09-21T22:05:28.971Z,13.32
2022-09-21T22:07:58.177Z,13.55
2022-09-21T22:10:27.674Z,13.25
2022-09-21T22:12:58.459Z,14.20
2022-09-21T22:15:27.540Z,13.38
2022-09-21T22:17:56.900Z,13.82
2022-09-21T22:20:25.772Z,12.32
2022-09-21T22:22:54.920Z,13.73
2022-09-21T22:25:24.073Z,12.45
2022-09-21T22:27:53.319Z,13.35
2022-09-21T22:30:22.865Z,13.25
2022-09-21T22:32:52.865Z,13.82
2022-09-21T22:35:22.158Z,13.75
2022-09-21T22:37:55.617Z,14.55
2022-09-21T22:40:24.601Z,14.52
2022-09-21T22:42:53.639Z,13.45
2022-09-21T22:45:22.702Z,14.20
2022-09-21T22:47:52.038Z,14.00
2022-09-21T22:50:21.108Z,17.98
2022-09-21T22:52:50.161Z,19.83
2022-09-21T22:55:19.062Z,20.48
2022-09-21T22:57:48.271Z,20.20
2022-09-21T23:00:17.431Z,21.80
2022-09-21T23:02:56.314Z,26.02
2022-09-21T23:05:25.345Z,26.20
2022-09-21T23:07:58.537Z,24.45
2022-09-21T23:10:28.262Z,21.77
2022-09-21T23:12:57.764Z,22.65
2022-09-21T23:15:26.648Z,23.40
2022-09-21T23:17:55.904Z,20.52
2022-09-21T23:20:24.971Z,22.60
2022-09-21T23:22:54.115Z,21.33
2022-09-21T23:25:23.537Z,24.13
2022-09-21T23:27:53.020Z,27.23
2022-09-21T23:30:22.041Z,27.52
2022-09-21T23:32:54.895Z,24.63
2022-09-21T23:35:24.167Z,25.05
2022-09-21T23:37:53.056Z,26.58
2022-09-21T23:40:22.304Z,23.88
2022-09-21T23:42:51.635Z,22.45
2022-09-21T23:45:20.590Z,21.52
2022-09-21T23:47:49.703Z,19.52
2022-09-21T23:50:18.968Z,18.52
2022-09-21T23:52:48.367Z,16.42
2022-09-21T23:55:17.215Z,16.50
2022-09-21T23:57:46.676Z,16.40
